createdAt,value
2023-04-16T00:00:02.000Z,6.903225806451608
2023-04-16T00:01:05.000Z,6.903225806451608
2023-04-16T00:02:07.000Z,6.903225806451608
2023-04-16T00:03:09.000Z,6.903225806451608
2023-04-16T00:04:12.000Z,6.903225806451608
2023-04-16T00:05:14.000Z,6.903225806451608
2023-04-16T00:06:16.000Z,6.903225806451608
2023-04-16T00:07:19.000Z,6.903225806451608
2023-04-16T00:08:21.000Z,6.903225806451608
2023-04-16T00:09:24.000Z,6.903225806451608
2023-04-16T00:10:26.000Z,6.903225806451608
2023-04-16T00:11:28.000Z,6.999999999999995
2023-04-16T00:12:30.000Z,6.999999999999995
2023-04-16T00:13:33.000Z,6.903225806451608
2023-04-16T00:14:35.000Z,6.999999999999995
2023-04-16T00:15:37.000Z,6.999999999999995
2023-04-16T00:16:40.000Z,6.903225806451608
2023-04-16T00:17:42.000Z,6.903225806451608
2023-04-16T00:18:44.000Z,6.903225806451608
2023-04-16T00:19:47.000Z,6.999999999999995
2023-04-16T00:20:49.000Z,6.999999999999995
2023-04-16T00:21:52.000Z,6.903225806451608
2023-04-16T00:22:54.000Z,6.999999999999995
2023-04-16T00:23:56.000Z,6.903225806451608
2023-04-16T00:24:59.000Z,6.999999999999995
2023-04-16T00:26:01.000Z,6.999999999999995
2023-04-16T00:27:03.000Z,6.999999999999995
2023-04-16T00:28:06.000Z,6.999999999999995
2023-04-16T00:29:08.000Z,6.903225806451608
2023-04-16T00:30:10.000Z,6.999999999999995
2023-04-16T00:31:13.000Z,6.903225806451608
2023-04-16T00:32:15.000Z,6.999999999999995
2023-04-16T00:33:17.000Z,6.999999999999995
2023-04-16T00:34:20.000Z,6.999999999999995
2023-04-16T00:35:22.000Z,6.903225806451608
2023-04-16T00:36:24.000Z,6.999999999999995
2023-04-16T00:37:27.000Z,6.999999999999995
2023-04-16T00:38:29.000Z,6.999999999999995
2023-04-16T00:39:31.000Z,6.999999999999995
2023-04-16T00:40:33.000Z,6.999999999999995
2023-04-16T00:41:36.000Z,6.999999999999995
2023-04-16T00:42:38.000Z,6.999999999999995
2023-04-16T00:43:40.000Z,6.999999999999995
2023-04-16T00:44:43.000Z,6.999999999999995
2023-04-16T00:45:45.000Z,6.999999999999995
2023-04-16T00:46:48.000Z,6.999999999999995
2023-04-16T00:47:50.000Z,6.999999999999995
2023-04-16T00:48:52.000Z,6.999999999999995
2023-04-16T00:49:55.000Z,6.999999999999995
2023-04-16T00:50:57.000Z,6.999999999999995
2023-04-16T00:51:59.000Z,6.999999999999995
2023-04-16T00:53:01.000Z,6.999999999999995
2023-04-16T00:54:04.000Z,6.999999999999995
2023-04-16T00:55:06.000Z,6.999999999999995
2023-04-16T00:56:08.000Z,6.999999999999995
2023-04-16T00:57:11.000Z,6.903225806451608
2023-04-16T00:58:13.000Z,6.999999999999995
2023-04-16T00:59:15.000Z,6.999999999999995
2023-04-16T01:00:18.000Z,6.999999999999995
2023-04-16T01:01:20.000Z,6.999999999999995
2023-04-16T01:02:23.000Z,6.999999999999995
2023-04-16T01:03:25.000Z,6.999999999999995
2023-04-16T01:04:27.000Z,6.999999999999995
2023-04-16T01:05:30.000Z,6.999999999999995
2023-04-16T01:06:32.000Z,6.999999999999995
2023-04-16T01:07:34.000Z,6.999999999999995
2023-04-16T01:08:36.000Z,6.999999999999995
2023-04-16T01:09:39.000Z,6.999999999999995
2023-04-16T01:10:41.000Z,6.999999999999995
2023-04-16T01:11:43.000Z,6.999999999999995
2023-04-16T01:12:46.000Z,6.999999999999995
2023-04-16T01:13:48.000Z,6.999999999999995
2023-04-16T01:14:51.000Z,6.999999999999995
2023-04-16T01:15:53.000Z,6.999999999999995
2023-04-16T01:16:55.000Z,6.999999999999995
2023-04-16T01:17:57.000Z,6.999999999999995
2023-04-16T01:19:00.000Z,6.999999999999995
2023-04-16T01:20:02.000Z,6.999999999999995
2023-04-16T01:21:05.000Z,6.999999999999995
2023-04-16T01:22:07.000Z,6.999999999999995
2023-04-16T01:23:09.000Z,6.999999999999995
2023-04-16T01:24:12.000Z,6.999999999999995
2023-04-16T01:25:14.000Z,6.999999999999995
2023-04-16T01:26:16.000Z,6.999999999999995
2023-04-16T01:27:19.000Z,6.999999999999995
2023-04-16T01:28:21.000Z,6.999999999999995
2023-04-16T01:29:23.000Z,6.999999999999995
2023-04-16T01:30:26.000Z,6.999999999999995
2023-04-16T01:31:28.000Z,6.999999999999995
2023-04-16T01:32:30.000Z,6.999999999999995
2023-04-16T01:33:33.000Z,6.999999999999995
2023-04-16T01:34:35.000Z,6.999999999999995
2023-04-16T01:35:37.000Z,6.999999999999995
2023-04-16T01:36:40.000Z,6.999999999999995
2023-04-16T01:37:42.000Z,6.999999999999995
2023-04-16T01:38:44.000Z,6.999999999999995
2023-04-16T01:39:47.000Z,6.999999999999995
2023-04-16T01:40:49.000Z,6.999999999999995
2023-04-16T01:41:51.000Z,6.999999999999995
2023-04-16T01:42:54.000Z,6.999999999999995
2023-04-16T01:43:56.000Z,6.999999999999995
2023-04-16T01:44:58.000Z,6.999999999999995
2023-04-16T01:46:01.000Z,7.096774193548382
2023-04-16T01:47:03.000Z,6.999999999999995
2023-04-16T01:48:06.000Z,6.999999999999995
2023-04-16T01:49:08.000Z,6.999999999999995
2023-04-16T01:50:10.000Z,6.999999999999995
2023-04-16T01:51:13.000Z,6.999999999999995
2023-04-16T01:52:15.000Z,6.999999999999995
2023-04-16T01:53:17.000Z,6.999999999999995
2023-04-16T01:54:20.000Z,6.999999999999995
2023-04-16T01:55:22.000Z,6.999999999999995
2023-04-16T01:56:25.000Z,6.999999999999995
2023-04-16T01:57:27.000Z,6.999999999999995
2023-04-16T01:58:29.000Z,6.999999999999995
2023-04-16T01:59:32.000Z,7.096774193548382
2023-04-16T02:00:34.000Z,7.096774193548382
2023-04-16T02:01:36.000Z,6.999999999999995
2023-04-16T02:02:38.000Z,6.999999999999995
2023-04-16T02:03:41.000Z,6.999999999999995
2023-04-16T02:04:43.000Z,6.999999999999995
2023-04-16T02:05:45.000Z,6.999999999999995
2023-04-16T02:06:48.000Z,6.999999999999995
2023-04-16T02:07:50.000Z,6.999999999999995
2023-04-16T02:08:54.000Z,6.999999999999995
2023-04-16T02:09:56.000Z,6.999999999999995
2023-04-16T02:10:58.000Z,6.999999999999995
2023-04-16T02:12:01.000Z,6.999999999999995
2023-04-16T02:13:03.000Z,7.096774193548382
2023-04-16T02:14:05.000Z,6.999999999999995
2023-04-16T02:15:08.000Z,7.096774193548382
2023-04-16T02:16:10.000Z,6.999999999999995
2023-04-16T02:17:12.000Z,6.999999999999995
2023-04-16T02:18:14.000Z,6.999999999999995
2023-04-16T02:19:17.000Z,7.096774193548382
2023-04-16T02:20:19.000Z,7.096774193548382
2023-04-16T02:21:21.000Z,7.096774193548382
2023-04-16T02:22:24.000Z,7.096774193548382
2023-04-16T02:23:26.000Z,7.096774193548382
2023-04-16T02:24:28.000Z,6.999999999999995
2023-04-16T02:25:31.000Z,7.096774193548382
2023-04-16T02:26:33.000Z,7.096774193548382
2023-04-16T02:27:35.000Z,7.096774193548382
2023-04-16T02:28:38.000Z,7.096774193548382
2023-04-16T02:29:40.000Z,7.096774193548382
2023-04-16T02:30:42.000Z,6.999999999999995
2023-04-16T02:31:45.000Z,7.096774193548382
2023-04-16T02:32:47.000Z,7.096774193548382
2023-04-16T02:33:49.000Z,7.096774193548382
2023-04-16T02:34:52.000Z,7.096774193548382
2023-04-16T02:35:54.000Z,6.999999999999995
2023-04-16T02:36:56.000Z,6.999999999999995
2023-04-16T02:37:59.000Z,6.999999999999995
2023-04-16T02:39:01.000Z,6.999999999999995
2023-04-16T02:40:03.000Z,7.096774193548382
2023-04-16T02:41:06.000Z,7.096774193548382
2023-04-16T02:42:08.000Z,6.999999999999995
2023-04-16T02:43:10.000Z,7.096774193548382
2023-04-16T02:44:13.000Z,7.096774193548382
2023-04-16T02:45:15.000Z,7.096774193548382
2023-04-16T02:46:17.000Z,6.999999999999995
2023-04-16T02:47:20.000Z,7.096774193548382
2023-04-16T02:48:22.000Z,6.999999999999995
2023-04-16T02:49:24.000Z,6.999999999999995
2023-04-16T02:50:26.000Z,7.096774193548382
2023-04-16T02:51:29.000Z,7.096774193548382
2023-04-16T02:52:31.000Z,7.096774193548382
2023-04-16T02:53:33.000Z,7.096774193548382
2023-04-16T02:54:36.000Z,6.999999999999995
2023-04-16T02:55:38.000Z,7.096774193548382
2023-04-16T02:56:45.000Z,7.096774193548382
2023-04-16T02:57:48.000Z,6.999999999999995
2023-04-16T02:58:50.000Z,7.096774193548382
2023-04-16T02:59:53.000Z,7.096774193548382
2023-04-16T03:00:55.000Z,7.096774193548382
2023-04-16T03:01:57.000Z,7.096774193548382
2023-04-16T03:03:00.000Z,7.096774193548382
2023-04-16T03:04:02.000Z,6.999999999999995
2023-04-16T03:05:04.000Z,6.999999999999995
2023-04-16T03:06:07.000Z,7.096774193548382
2023-04-16T03:07:09.000Z,7.096774193548382
2023-04-16T03:08:11.000Z,6.999999999999995
2023-04-16T03:09:14.000Z,7.096774193548382
2023-04-16T03:10:16.000Z,7.096774193548382
2023-04-16T03:11:19.000Z,7.096774193548382
2023-04-16T03:12:21.000Z,7.096774193548382
2023-04-16T03:13:23.000Z,7.096774193548382
2023-04-16T03:14:26.000Z,7.096774193548382
2023-04-16T03:15:28.000Z,7.096774193548382
2023-04-16T03:16:30.000Z,7.096774193548382
2023-04-16T03:17:33.000Z,7.096774193548382
2023-04-16T03:18:35.000Z,7.096774193548382
2023-04-16T03:19:37.000Z,7.096774193548382
2023-04-16T03:20:40.000Z,7.096774193548382
2023-04-16T03:21:42.000Z,7.096774193548382
2023-04-16T03:22:44.000Z,7.096774193548382
2023-04-16T03:23:47.000Z,7.096774193548382
2023-04-16T03:24:49.000Z,7.096774193548382
2023-04-16T03:25:51.000Z,7.096774193548382
2023-04-16T03:26:54.000Z,7.096774193548382
2023-04-16T03:27:56.000Z,7.096774193548382
2023-04-16T03:28:59.000Z,7.096774193548382
2023-04-16T03:30:01.000Z,7.096774193548382
2023-04-16T03:31:03.000Z,7.096774193548382
2023-04-16T03:32:06.000Z,7.096774193548382
2023-04-16T03:33:08.000Z,7.096774193548382
2023-04-16T03:34:11.000Z,7.096774193548382
2023-04-16T03:35:13.000Z,6.999999999999995
2023-04-16T03:36:15.000Z,7.096774193548382
2023-04-16T03:37:18.000Z,7.096774193548382
2023-04-16T03:38:20.000Z,7.096774193548382
2023-04-16T03:39:22.000Z,7.096774193548382
2023-04-16T03:40:25.000Z,7.096774193548382
2023-04-16T03:41:27.000Z,7.096774193548382
2023-04-16T03:42:30.000Z,7.096774193548382
2023-04-16T03:43:32.000Z,7.096774193548382
2023-04-16T03:44:34.000Z,7.096774193548382
2023-04-16T03:45:37.000Z,7.096774193548382
2023-04-16T03:46:39.000Z,7.096774193548382
2023-04-16T03:47:41.000Z,7.096774193548382
2023-04-16T03:48:44.000Z,7.096774193548382
2023-04-16T03:49:46.000Z,7.096774193548382
2023-04-16T03:50:49.000Z,7.096774193548382
2023-04-16T03:51:51.000Z,7.096774193548382
2023-04-16T03:52:53.000Z,7.096774193548382
2023-04-16T03:54:01.000Z,7.096774193548382
2023-04-16T03:55:03.000Z,7.096774193548382
2023-04-16T03:56:06.000Z,7.096774193548382
2023-04-16T03:57:08.000Z,7.096774193548382
2023-04-16T03:58:10.000Z,7.096774193548382
2023-04-16T03:59:13.000Z,7.096774193548382
2023-04-16T04:00:15.000Z,7.096774193548382
2023-04-16T04:01:17.000Z,7.096774193548382
2023-04-16T04:02:20.000Z,6.999999999999995
2023-04-16T04:03:22.000Z,7.096774193548382
2023-04-16T04:04:25.000Z,7.096774193548382
2023-04-16T04:05:27.000Z,7.096774193548382
2023-04-16T04:06:30.000Z,7.096774193548382
2023-04-16T04:07:32.000Z,7.096774193548382
2023-04-16T04:08:34.000Z,7.096774193548382
2023-04-16T04:09:37.000Z,7.096774193548382
2023-04-16T04:10:39.000Z,7.096774193548382
2023-04-16T04:11:42.000Z,7.193548387096769
2023-04-16T04:12:44.000Z,7.096774193548382
2023-04-16T04:13:46.000Z,7.096774193548382
2023-04-16T04:14:49.000Z,7.096774193548382
2023-04-16T04:15:51.000Z,7.096774193548382
2023-04-16T04:16:53.000Z,7.096774193548382
2023-04-16T04:17:56.000Z,6.999999999999995
2023-04-16T04:18:58.000Z,7.096774193548382
2023-04-16T04:20:01.000Z,7.193548387096769
2023-04-16T04:21:03.000Z,7.096774193548382
2023-04-16T04:22:05.000Z,7.193548387096769
2023-04-16T04:23:08.000Z,7.096774193548382
2023-04-16T04:24:10.000Z,7.096774193548382
2023-04-16T04:25:13.000Z,7.096774193548382
2023-04-16T04:26:15.000Z,7.096774193548382
2023-04-16T04:27:18.000Z,7.096774193548382
2023-04-16T04:28:20.000Z,7.096774193548382
2023-04-16T04:29:22.000Z,7.096774193548382
2023-04-16T04:30:25.000Z,7.193548387096769
2023-04-16T04:31:27.000Z,7.096774193548382
2023-04-16T04:32:29.000Z,7.096774193548382
2023-04-16T04:33:32.000Z,7.096774193548382
2023-04-16T04:34:34.000Z,7.096774193548382
2023-04-16T04:35:37.000Z,7.193548387096769
2023-04-16T04:36:39.000Z,7.193548387096769
2023-04-16T04:37:41.000Z,7.096774193548382
2023-04-16T04:38:44.000Z,7.096774193548382
2023-04-16T04:39:46.000Z,7.096774193548382
2023-04-16T04:40:49.000Z,7.096774193548382
2023-04-16T04:41:51.000Z,7.096774193548382
2023-04-16T04:42:53.000Z,7.193548387096769
2023-04-16T04:43:56.000Z,7.096774193548382
2023-04-16T04:44:58.000Z,7.096774193548382
2023-04-16T04:46:01.000Z,7.096774193548382
2023-04-16T04:47:03.000Z,7.096774193548382
2023-04-16T04:48:05.000Z,7.193548387096769
2023-04-16T04:49:08.000Z,7.096774193548382
2023-04-16T04:50:10.000Z,7.096774193548382
2023-04-16T04:51:12.000Z,7.193548387096769
2023-04-16T04:52:15.000Z,7.096774193548382
2023-04-16T04:53:17.000Z,7.193548387096769
2023-04-16T04:54:20.000Z,7.193548387096769
2023-04-16T04:55:22.000Z,7.096774193548382
2023-04-16T04:56:25.000Z,7.096774193548382
2023-04-16T04:57:27.000Z,7.193548387096769
2023-04-16T04:58:29.000Z,7.193548387096769
2023-04-16T04:59:32.000Z,7.193548387096769
2023-04-16T05:00:34.000Z,7.193548387096769
2023-04-16T05:01:37.000Z,7.096774193548382
2023-04-16T05:02:39.000Z,7.096774193548382
2023-04-16T05:03:41.000Z,7.096774193548382
2023-04-16T05:04:44.000Z,7.193548387096769
2023-04-16T05:05:46.000Z,7.096774193548382
2023-04-16T05:06:48.000Z,7.193548387096769
2023-04-16T05:07:51.000Z,7.096774193548382
2023-04-16T05:08:53.000Z,7.193548387096769
2023-04-16T05:09:55.000Z,7.193548387096769
2023-04-16T05:10:58.000Z,7.096774193548382
2023-04-16T05:12:00.000Z,7.096774193548382
2023-04-16T05:13:03.000Z,7.193548387096769
2023-04-16T05:14:05.000Z,7.096774193548382
2023-04-16T05:15:07.000Z,7.096774193548382
2023-04-16T05:16:10.000Z,7.096774193548382
2023-04-16T05:17:12.000Z,7.193548387096769
2023-04-16T05:18:14.000Z,7.193548387096769
2023-04-16T05:19:17.000Z,7.193548387096769
2023-04-16T05:20:19.000Z,7.193548387096769
2023-04-16T05:21:22.000Z,7.193548387096769
2023-04-16T05:22:24.000Z,7.193548387096769
2023-04-16T05:23:26.000Z,7.193548387096769
2023-04-16T05:24:29.000Z,7.096774193548382
2023-04-16T05:25:31.000Z,7.193548387096769
2023-04-16T05:26:33.000Z,7.193548387096769
2023-04-16T05:27:36.000Z,7.096774193548382
2023-04-16T05:28:38.000Z,7.193548387096769
2023-04-16T05:29:40.000Z,7.193548387096769
2023-04-16T05:30:43.000Z,7.193548387096769
2023-04-16T05:31:45.000Z,7.096774193548382
2023-04-16T05:32:47.000Z,7.193548387096769
2023-04-16T05:33:50.000Z,7.096774193548382
2023-04-16T05:34:52.000Z,7.096774193548382
2023-04-16T05:35:54.000Z,7.193548387096769
2023-04-16T05:36:57.000Z,7.096774193548382
2023-04-16T05:37:59.000Z,7.193548387096769
2023-04-16T05:39:01.000Z,7.193548387096769
2023-04-16T05:40:04.000Z,7.096774193548382
2023-04-16T05:41:06.000Z,7.096774193548382
2023-04-16T05:42:09.000Z,7.193548387096769
2023-04-16T05:43:11.000Z,7.193548387096769
2023-04-16T05:44:13.000Z,7.193548387096769
2023-04-16T05:45:16.000Z,7.193548387096769
2023-04-16T05:46:18.000Z,7.096774193548382
2023-04-16T05:47:20.000Z,7.096774193548382
2023-04-16T05:48:23.000Z,7.193548387096769
2023-04-16T05:49:25.000Z,7.193548387096769
2023-04-16T05:50:27.000Z,7.193548387096769
2023-04-16T05:51:30.000Z,7.193548387096769
2023-04-16T05:52:32.000Z,7.096774193548382
2023-04-16T05:53:34.000Z,7.193548387096769
2023-04-16T05:54:37.000Z,7.193548387096769
2023-04-16T05:55:39.000Z,7.193548387096769
2023-04-16T05:56:41.000Z,7.193548387096769
2023-04-16T05:57:44.000Z,7.096774193548382
2023-04-16T05:58:46.000Z,7.193548387096769
2023-04-16T05:59:49.000Z,7.193548387096769
2023-04-16T06:00:51.000Z,7.193548387096769
2023-04-16T06:01:53.000Z,7.096774193548382
2023-04-16T06:02:56.000Z,7.193548387096769
2023-04-16T06:03:58.000Z,7.096774193548382
2023-04-16T06:05:00.000Z,7.096774193548382
2023-04-16T06:06:03.000Z,7.096774193548382
2023-04-16T06:07:05.000Z,7.193548387096769
2023-04-16T06:08:08.000Z,7.193548387096769
2023-04-16T06:09:10.000Z,7.193548387096769
2023-04-16T06:10:13.000Z,7.193548387096769
2023-04-16T06:11:16.000Z,7.193548387096769
2023-04-16T06:12:18.000Z,7.193548387096769
2023-04-16T06:13:20.000Z,7.193548387096769
2023-04-16T06:14:23.000Z,7.193548387096769
2023-04-16T06:15:25.000Z,7.193548387096769
2023-04-16T06:16:28.000Z,7.193548387096769
2023-04-16T06:17:30.000Z,7.193548387096769
2023-04-16T06:18:32.000Z,7.193548387096769
2023-04-16T06:19:35.000Z,7.193548387096769
2023-04-16T06:20:37.000Z,7.096774193548382
2023-04-16T06:21:40.000Z,7.193548387096769
2023-04-16T06:22:42.000Z,7.193548387096769
2023-04-16T06:23:44.000Z,7.193548387096769
2023-04-16T06:24:47.000Z,7.193548387096769
2023-04-16T06:25:49.000Z,7.193548387096769
2023-04-16T06:26:51.000Z,7.193548387096769
2023-04-16T06:27:54.000Z,7.193548387096769
2023-04-16T06:28:56.000Z,7.193548387096769
2023-04-16T06:29:59.000Z,7.193548387096769
2023-04-16T06:31:01.000Z,7.193548387096769
2023-04-16T06:32:03.000Z,7.193548387096769
2023-04-16T06:33:06.000Z,7.193548387096769
2023-04-16T06:34:08.000Z,7.096774193548382
2023-04-16T06:35:10.000Z,7.193548387096769
2023-04-16T06:36:13.000Z,7.193548387096769
2023-04-16T06:37:15.000Z,7.193548387096769
2023-04-16T06:38:17.000Z,7.193548387096769
2023-04-16T06:39:20.000Z,7.193548387096769
2023-04-16T06:40:22.000Z,7.193548387096769
2023-04-16T06:41:24.000Z,7.193548387096769
2023-04-16T06:42:27.000Z,7.193548387096769
2023-04-16T06:43:29.000Z,7.193548387096769
2023-04-16T06:44:31.000Z,7.193548387096769
2023-04-16T06:45:34.000Z,7.193548387096769
2023-04-16T06:46:36.000Z,7.193548387096769
2023-04-16T06:47:38.000Z,7.193548387096769
2023-04-16T06:48:41.000Z,7.193548387096769
2023-04-16T06:49:43.000Z,7.193548387096769
2023-04-16T06:50:45.000Z,7.193548387096769
2023-04-16T06:51:48.000Z,7.193548387096769
2023-04-16T06:52:50.000Z,7.193548387096769
2023-04-16T06:53:52.000Z,7.193548387096769
2023-04-16T06:54:55.000Z,7.193548387096769
2023-04-16T06:55:57.000Z,7.290322580645156
2023-04-16T06:57:00.000Z,7.193548387096769
2023-04-16T06:58:02.000Z,7.193548387096769
2023-04-16T06:59:04.000Z,7.096774193548382
2023-04-16T07:00:07.000Z,7.193548387096769
2023-04-16T07:01:09.000Z,7.193548387096769
2023-04-16T07:02:12.000Z,7.193548387096769
2023-04-16T07:03:14.000Z,7.193548387096769
2023-04-16T07:04:16.000Z,7.193548387096769
2023-04-16T07:05:19.000Z,7.193548387096769
2023-04-16T07:06:21.000Z,7.193548387096769
2023-04-16T07:07:24.000Z,7.193548387096769
2023-04-16T07:08:26.000Z,7.193548387096769
2023-04-16T07:09:28.000Z,7.193548387096769
2023-04-16T07:10:31.000Z,7.193548387096769
2023-04-16T07:11:33.000Z,7.193548387096769
2023-04-16T07:12:36.000Z,7.193548387096769
2023-04-16T07:13:38.000Z,7.193548387096769
2023-04-16T07:14:40.000Z,7.193548387096769
2023-04-16T07:15:43.000Z,7.193548387096769
2023-04-16T07:16:45.000Z,7.193548387096769
2023-04-16T07:17:47.000Z,7.193548387096769
2023-04-16T07:18:50.000Z,7.193548387096769
2023-04-16T07:19:52.000Z,7.193548387096769
2023-04-16T07:20:54.000Z,7.193548387096769
2023-04-16T07:21:57.000Z,7.193548387096769
2023-04-16T07:22:59.000Z,7.193548387096769
2023-04-16T07:24:01.000Z,7.193548387096769
2023-04-16T07:25:04.000Z,7.193548387096769
2023-04-16T07:26:06.000Z,7.193548387096769
2023-04-16T07:27:09.000Z,7.193548387096769
2023-04-16T07:28:11.000Z,7.096774193548382
2023-04-16T07:29:13.000Z,7.193548387096769
2023-04-16T07:30:16.000Z,7.193548387096769
2023-04-16T07:31:18.000Z,7.096774193548382
2023-04-16T07:32:20.000Z,7.096774193548382
2023-04-16T07:33:23.000Z,7.096774193548382
2023-04-16T07:34:25.000Z,7.193548387096769
2023-04-16T07:35:27.000Z,7.096774193548382
2023-04-16T07:36:30.000Z,7.096774193548382
2023-04-16T07:37:32.000Z,6.999999999999995
2023-04-16T07:38:34.000Z,7.096774193548382
2023-04-16T07:39:37.000Z,7.096774193548382
2023-04-16T07:40:39.000Z,7.096774193548382
2023-04-16T07:41:41.000Z,7.096774193548382
2023-04-16T07:42:44.000Z,7.096774193548382
2023-04-16T07:43:46.000Z,7.096774193548382
2023-04-16T07:44:48.000Z,7.096774193548382
2023-04-16T07:45:50.000Z,7.096774193548382
2023-04-16T07:46:53.000Z,7.096774193548382
2023-04-16T07:47:55.000Z,7.096774193548382
2023-04-16T07:48:57.000Z,7.193548387096769
2023-04-16T07:50:00.000Z,7.096774193548382
2023-04-16T07:51:02.000Z,7.096774193548382
2023-04-16T07:52:04.000Z,7.096774193548382
2023-04-16T07:53:07.000Z,7.096774193548382
2023-04-16T07:54:09.000Z,7.096774193548382
2023-04-16T07:55:11.000Z,7.096774193548382
2023-04-16T07:56:13.000Z,7.193548387096769
2023-04-16T07:57:16.000Z,7.096774193548382
2023-04-16T07:58:18.000Z,7.096774193548382
2023-04-16T07:59:20.000Z,7.096774193548382
2023-04-16T08:00:23.000Z,7.193548387096769
2023-04-16T08:01:25.000Z,7.096774193548382
2023-04-16T08:02:27.000Z,7.096774193548382
2023-04-16T08:03:29.000Z,7.096774193548382
2023-04-16T08:04:32.000Z,7.096774193548382
2023-04-16T08:05:34.000Z,7.096774193548382
2023-04-16T08:06:36.000Z,7.096774193548382
2023-04-16T08:07:39.000Z,7.096774193548382
2023-04-16T08:08:41.000Z,7.193548387096769
2023-04-16T08:09:43.000Z,7.193548387096769
2023-04-16T08:10:46.000Z,7.096774193548382
2023-04-16T08:11:48.000Z,7.096774193548382
2023-04-16T08:12:50.000Z,7.193548387096769
2023-04-16T08:13:53.000Z,7.193548387096769
2023-04-16T08:14:55.000Z,7.193548387096769
2023-04-16T08:15:57.000Z,7.096774193548382
2023-04-16T08:17:00.000Z,7.096774193548382
2023-04-16T08:18:02.000Z,7.096774193548382
2023-04-16T08:19:04.000Z,7.096774193548382
2023-04-16T08:20:07.000Z,6.999999999999995
2023-04-16T08:21:09.000Z,6.999999999999995
2023-04-16T08:22:11.000Z,6.999999999999995
2023-04-16T08:23:14.000Z,6.999999999999995
2023-04-16T08:24:16.000Z,6.999999999999995
2023-04-16T08:25:18.000Z,6.999999999999995
2023-04-16T08:26:20.000Z,6.999999999999995
2023-04-16T08:27:23.000Z,6.999999999999995
2023-04-16T08:28:25.000Z,6.999999999999995
2023-04-16T08:29:27.000Z,6.999999999999995
2023-04-16T08:30:30.000Z,6.999999999999995
2023-04-16T08:31:32.000Z,6.999999999999995
2023-04-16T08:32:34.000Z,6.999999999999995
2023-04-16T08:33:37.000Z,6.999999999999995
2023-04-16T08:34:39.000Z,6.999999999999995
2023-04-16T08:35:41.000Z,6.999999999999995
2023-04-16T08:36:44.000Z,6.999999999999995
2023-04-16T08:37:46.000Z,6.999999999999995
2023-04-16T08:38:48.000Z,6.999999999999995
2023-04-16T08:39:51.000Z,6.999999999999995
2023-04-16T08:40:53.000Z,6.999999999999995
2023-04-16T08:41:56.000Z,6.999999999999995
2023-04-16T08:42:58.000Z,6.999999999999995
2023-04-16T08:44:00.000Z,6.999999999999995
2023-04-16T08:45:02.000Z,6.903225806451608
2023-04-16T08:46:05.000Z,6.806451612903221
2023-04-16T08:47:07.000Z,6.709677419354834
2023-04-16T08:48:10.000Z,6.612903225806447
2023-04-16T08:49:12.000Z,6.709677419354834
2023-04-16T08:50:14.000Z,6.612903225806447
2023-04-16T08:51:16.000Z,6.51612903225806
2023-04-16T08:52:19.000Z,6.51612903225806
2023-04-16T08:53:21.000Z,6.322580645161286
2023-04-16T08:54:24.000Z,6.225806451612899
2023-04-16T08:55:26.000Z,6.225806451612899
2023-04-16T08:56:28.000Z,6.129032258064512
2023-04-16T08:57:31.000Z,6.032258064516125
2023-04-16T08:58:33.000Z,5.9354838709677376
2023-04-16T08:59:35.000Z,5.9354838709677376
2023-04-16T09:00:37.000Z,5.8387096774193505
2023-04-16T09:01:40.000Z,5.8387096774193505
2023-04-16T09:02:42.000Z,5.8387096774193505
2023-04-16T09:03:44.000Z,5.7419354838709635
2023-04-16T09:04:47.000Z,5.6451612903225765
2023-04-16T09:05:49.000Z,5.5483870967741895
2023-04-16T09:06:51.000Z,5.5483870967741895
2023-04-16T09:07:54.000Z,5.3548387096774155
2023-04-16T09:08:56.000Z,5.3548387096774155
2023-04-16T09:09:58.000Z,5.2580645161290285
2023-04-16T09:11:01.000Z,5.3548387096774155
2023-04-16T09:12:03.000Z,5.3548387096774155
2023-04-16T09:13:10.000Z,5.2580645161290285
2023-04-16T09:14:12.000Z,5.3548387096774155
2023-04-16T09:15:15.000Z,5.2580645161290285
2023-04-16T09:16:17.000Z,5.2580645161290285
2023-04-16T09:17:19.000Z,5.2580645161290285
2023-04-16T09:18:21.000Z,5.2580645161290285
2023-04-16T09:19:24.000Z,5.2580645161290285
2023-04-16T09:20:26.000Z,5.2580645161290285
2023-04-16T09:21:28.000Z,5.2580645161290285
2023-04-16T09:22:30.000Z,5.2580645161290285
2023-04-16T09:23:33.000Z,5.2580645161290285
2023-04-16T09:24:35.000Z,5.2580645161290285
2023-04-16T09:25:37.000Z,5.3548387096774155
2023-04-16T09:26:40.000Z,5.2580645161290285
2023-04-16T09:27:42.000Z,5.2580645161290285
2023-04-16T09:28:44.000Z,5.2580645161290285
2023-04-16T09:29:46.000Z,5.2580645161290285
2023-04-16T09:30:49.000Z,5.2580645161290285
2023-04-16T09:31:51.000Z,5.2580645161290285
2023-04-16T09:32:53.000Z,5.2580645161290285
2023-04-16T09:33:55.000Z,5.2580645161290285
2023-04-16T09:34:58.000Z,5.2580645161290285
2023-04-16T09:36:00.000Z,5.2580645161290285
2023-04-16T09:37:02.000Z,5.2580645161290285